Aérodrome :
LOGIN :

S'inscrire | Disclaimer

   EN    FR    IT 

 










Légende :    VFR   VFR Marginal   IFR   IFR Intensif   IFR Très Intensif
Visi : 
Plafond : 
>= 8 km
>= 3000ft
5 à 8 km
1000 à 3000 ft
1500m à 5 km
500 à 1000 ft
800 à 1500m
200 à 500 ft
< 800m
< 200 ft
Symboles :   Orages  Brouillard  Fortes neiges  Fortes précipitations  Vent > 20 kt
SIGMETs :   Divers  Orages  Givrage  Turbulence  Onde Orograph.  Cendres Volcan.







- Altitude de l'aérodrome : 141 ft
- Code IATA : SKS


EKSP - Srydstrup Vojens

DERNIER METAR :
  • 161820Z 23008KT CAVOK 18/11 Q1019 RMK FEW065

METARs EXPIRÉS :
  • 161750Z 22007KT CAVOK 19/11 Q1019
  • 161720Z 21007KT 170V230 9999 FEW030 19/12 Q1019
  • 161650Z 23008KT 9999 FEW031 SCT070 19/13 Q1019
  • 161620Z 24009KT 200V270 9999 FEW031 SCT070 20/13 Q1019
  • 161550Z 24011KT 9999 FEW031 BKN060 BKN250 20/13 Q1019

TAF TAF EKSP
Valide du 16 à 18h jusqu'au 17 à 18h UTC


161703Z 1618/1718 23008KT 9999 SCT030
PROB40 1701/1704 2000 MIFG
Pas de NOTAMs connus pour ce terrain.



MET'MAP, la Météo Aéronautique d'un coup d'oeil ! - Copyright ORBIFLY Décembre 2007 - Disclaimer

ORBIFLY MET'MAP TEAM :

Programmation & Développement : Alexandra Zaïnal
Conception & Développement : Baudouin d'Aumeries
Co-Programmation & Développement : Marc-Olivier Méhu
Soutien technique & logistique : Manuel Goepfert

Contact : metmap@orbifly.com




SOURCES & CREDITS :

   NOAA